createdAt,value
2023-04-11T00:01:51.253Z,100515.09
2023-04-11T00:06:53.499Z,100498.97
2023-04-11T00:11:56.825Z,100499.38
2023-04-11T00:17:01.069Z,100486.50
2023-04-11T00:22:04.995Z,100494.31
2023-04-11T00:27:07.209Z,100491.22
2023-04-11T00:32:09.428Z,100496.66
2023-04-11T00:37:12.814Z,100485.63
2023-04-11T00:42:14.893Z,100477.91
2023-04-11T00:47:17.031Z,100458.50
2023-04-11T00:52:19.433Z,100454.37
2023-04-11T00:57:22.812Z,100467.13
2023-04-11T01:02:25.207Z,100469.41
2023-04-11T01:07:28.390Z,100453.50
2023-04-11T01:12:30.767Z,100470.53
2023-04-11T01:17:33.914Z,100461.22
2023-04-11T01:22:38.240Z,100446.31
2023-04-11T01:27:42.276Z,100448.34
2023-04-11T01:32:44.464Z,100440.72
2023-04-11T01:37:46.554Z,100434.91
2023-04-11T01:42:49.197Z,100410.44
2023-04-11T01:47:52.763Z,100416.06
2023-04-11T01:52:54.944Z,100421.66
2023-04-11T01:57:57.012Z,100398.75
2023-04-11T02:02:59.233Z,100420.91
2023-04-11T02:08:01.334Z,100413.06
2023-04-11T02:13:03.559Z,100416.13
2023-04-11T02:18:06.940Z,100396.84
2023-04-11T02:23:09.088Z,100401.50
2023-04-11T02:28:11.251Z,100393.47
2023-04-11T02:33:13.889Z,100374.22
2023-04-11T02:38:15.994Z,100382.19
2023-04-11T02:43:18.069Z,100376.47
2023-04-11T02:48:20.296Z,100386.00
2023-04-11T02:53:22.413Z,100374.00
2023-04-11T02:58:26.026Z,100393.16
2023-04-11T03:03:28.143Z,100393.25
2023-04-11T03:08:30.402Z,100393.16
2023-04-11T03:13:32.952Z,100388.59
2023-04-11T03:18:35.382Z,100375.38
2023-04-11T03:23:38.945Z,100370.03
2023-04-11T03:28:41.042Z,100370.81
2023-04-11T03:33:44.981Z,100373.88
2023-04-11T03:38:47.057Z,100364.41
2023-04-11T03:43:49.107Z,100376.91
2023-04-11T03:48:51.349Z,100367.38
2023-04-11T03:53:53.555Z,100383.94
2023-04-11T03:58:56.081Z,100378.31
2023-04-11T04:04:00.681Z,100355.69
2023-04-11T04:09:04.294Z,100365.31
2023-04-11T04:14:06.372Z,100383.72
2023-04-11T04:19:08.422Z,100370.97
2023-04-11T04:24:12.321Z,100389.00
2023-04-11T04:29:14.402Z,100357.78
2023-04-11T04:34:21.986Z,100370.25
2023-04-11T04:39:25.466Z,100375.87
2023-04-11T04:44:27.764Z,100387.47
2023-04-11T04:49:30.333Z,100385.59
2023-04-11T04:54:32.932Z,100380.03
2023-04-11T04:59:35.049Z,100380.38
2023-04-11T05:04:37.345Z,100356.06
2023-04-11T05:09:39.741Z,100352.84
2023-04-11T05:14:42.221Z,100341.31
2023-04-11T05:19:44.504Z,100360.09
2023-04-11T05:24:46.582Z,100354.34
2023-04-11T05:29:48.647Z,100346.53
2023-04-11T05:34:58.178Z,100345.66
2023-04-11T05:40:01.283Z,100350.44
2023-04-11T05:45:03.505Z,100350.84
2023-04-11T05:50:06.298Z,100337.69
2023-04-11T05:55:09.348Z,100336.53
2023-04-11T06:00:13.068Z,100345.31
2023-04-11T06:05:16.724Z,100317.44
2023-04-11T06:10:19.049Z,100321.75
2023-04-11T06:15:22.578Z,100304.38
2023-04-11T06:20:25.311Z,100314.34
2023-04-11T06:25:27.450Z,100304.09
2023-04-11T06:30:29.620Z,100315.13
2023-04-11T06:35:31.740Z,100315.53
2023-04-11T06:40:34.040Z,100311.28
2023-04-11T06:45:36.163Z,100292.22
2023-04-11T06:50:41.817Z,100291.41
2023-04-11T06:55:43.872Z,100293.03
2023-04-11T07:00:46.132Z,100303.84
2023-04-11T07:05:48.337Z,100298.72
2023-04-11T07:10:50.812Z,100296.22
2023-04-11T07:15:52.906Z,100298.13
2023-04-11T07:20:55.489Z,100286.72
2023-04-11T07:25:57.789Z,100282.47
2023-04-11T07:30:59.869Z,100271.94
2023-04-11T07:36:01.951Z,100289.22
2023-04-11T07:41:05.662Z,100274.06
2023-04-11T07:46:07.973Z,100271.41
2023-04-11T07:51:10.653Z,100265.97
2023-04-11T07:56:13.571Z,100275.50
2023-04-11T08:01:23.946Z,100248.00
2023-04-11T08:06:26.585Z,100258.91
2023-04-11T08:11:28.644Z,100251.78
2023-04-11T08:16:30.941Z,100258.56
2023-04-11T08:21:33.490Z,100250.34
2023-04-11T08:26:35.940Z,100254.91
2023-04-11T08:31:46.922Z,100230.13
2023-04-11T08:36:49.026Z,100214.06
2023-04-11T08:41:51.459Z,100210.75
2023-04-11T08:46:53.652Z,100211.03
2023-04-11T08:51:56.355Z,100194.00
2023-04-11T08:56:58.400Z,100164.56
2023-04-11T09:02:09.367Z,100176.88
2023-04-11T09:07:11.984Z,100162.34
2023-04-11T09:12:14.160Z,100157.38
2023-04-11T09:17:17.140Z,100173.34
2023-04-11T09:22:19.309Z,100164.97
2023-04-11T09:27:24.512Z,100157.38
2023-04-11T09:32:34.469Z,100148.31
2023-04-11T09:37:57.806Z,100140.91
2023-04-11T09:43:04.226Z,100127.38
2023-04-11T09:48:06.419Z,100111.41
2023-04-11T09:53:11.056Z,100117.97
2023-04-11T09:58:13.494Z,100107.38
2023-04-11T10:03:16.739Z,100116.41
2023-04-11T10:08:32.791Z,100094.44
2023-04-11T10:13:39.341Z,100102.34
2023-04-11T10:18:50.655Z,100094.50
2023-04-11T10:24:20.175Z,100087.66
2023-04-11T10:29:28.127Z,100082.84
2023-04-11T10:34:31.886Z,100067.75
2023-04-11T10:40:00.752Z,100062.69
2023-04-11T10:45:14.960Z,100047.41
2023-04-11T10:50:26.257Z,100039.19
2023-04-11T10:55:30.050Z,100029.75
2023-04-11T11:01:00.123Z,100031.41
2023-04-11T11:06:07.660Z,100028.56
2023-04-11T11:11:11.512Z,100010.09
2023-04-11T11:16:16.618Z,99991.22
2023-04-11T11:21:27.205Z,99986.88
2023-04-11T11:26:40.936Z,99985.37
2023-04-11T11:31:48.100Z,99978.31
2023-04-11T11:36:50.639Z,99955.56
2023-04-11T11:41:53.576Z,99961.91
2023-04-11T11:47:09.280Z,99963.84
2023-04-11T11:52:12.149Z,99961.03
2023-04-11T11:57:23.243Z,99957.00
2023-04-11T12:02:29.234Z,99939.81
2023-04-11T12:07:33.326Z,99947.25
2023-04-11T12:12:37.661Z,99941.97
2023-04-11T12:17:40.874Z,99934.59
2023-04-11T12:22:43.176Z,99926.78
2023-04-11T12:27:47.157Z,99926.81
2023-04-11T12:32:49.402Z,99945.97
2023-04-11T12:37:51.605Z,99939.81
2023-04-11T12:42:57.164Z,99928.97
2023-04-11T12:47:59.541Z,99918.59
2023-04-11T12:53:01.666Z,99911.56
2023-04-11T12:58:04.279Z,99900.19
2023-04-11T13:03:06.750Z,99893.50
2023-04-11T13:08:09.135Z,99897.34
2023-04-11T13:13:17.902Z,99888.84
2023-04-11T13:18:20.937Z,99880.38
2023-04-11T13:23:22.977Z,99852.97
2023-04-11T13:28:25.142Z,99859.38
2023-04-11T13:33:27.281Z,99832.50
2023-04-11T13:38:29.454Z,99831.56
2023-04-11T13:43:31.643Z,99842.56
2023-04-11T13:48:33.765Z,99836.41
2023-04-11T13:53:36.064Z,99824.22
2023-04-11T13:58:39.007Z,99819.16
2023-04-11T14:03:43.089Z,99829.75
2023-04-11T14:08:47.348Z,99818.69
2023-04-11T14:13:50.401Z,99825.13
2023-04-11T14:18:52.542Z,99822.81
2023-04-11T14:23:55.108Z,99818.84
2023-04-11T14:28:57.440Z,99823.22
2023-04-11T14:33:59.689Z,99835.16
2023-04-11T14:39:02.071Z,99841.00
2023-04-11T14:44:04.180Z,99852.22
2023-04-11T14:49:07.418Z,99855.69
2023-04-11T14:54:09.534Z,99852.44
2023-04-11T14:59:11.782Z,99839.44
2023-04-11T15:04:14.588Z,99877.94
2023-04-11T15:09:20.158Z,99881.22
2023-04-11T15:14:29.232Z,99881.53
2023-04-11T15:19:31.548Z,99882.16
2023-04-11T15:24:33.609Z,99892.16
2023-04-11T15:29:36.485Z,99896.44
2023-04-11T15:34:40.254Z,99902.91
2023-04-11T15:39:42.349Z,99895.88
2023-04-11T15:44:44.971Z,99909.69
2023-04-11T15:49:47.181Z,99895.41
2023-04-11T15:54:49.252Z,99918.56
2023-04-11T15:59:52.555Z,99905.28
2023-04-11T16:04:55.861Z,99912.66
2023-04-11T16:09:58.232Z,99910.44
2023-04-11T16:15:00.440Z,99929.47
2023-04-11T16:20:04.561Z,99921.81
2023-04-11T16:25:07.421Z,99906.88
2023-04-11T16:30:09.852Z,99898.16
2023-04-11T16:35:12.045Z,99903.59
2023-04-11T16:40:14.386Z,99894.13
2023-04-11T16:45:16.786Z,99884.31
2023-04-11T16:50:19.011Z,99892.75
2023-04-11T16:55:21.178Z,99897.34
2023-04-11T17:00:24.085Z,99888.94
2023-04-11T17:05:26.172Z,99875.62
2023-04-11T17:10:28.252Z,99885.13
2023-04-11T17:15:30.769Z,99862.03
2023-04-11T17:20:32.880Z,99896.81
2023-04-11T17:25:34.982Z,99879.97
2023-04-11T17:30:37.832Z,99891.66
2023-04-11T17:35:40.042Z,99878.34
2023-04-11T17:40:42.411Z,99880.81
2023-04-11T17:45:44.571Z,99859.56
2023-04-11T17:50:46.668Z,99871.81
2023-04-11T17:55:49.762Z,99866.63
2023-04-11T18:00:56.023Z,99882.41
2023-04-11T18:05:59.869Z,99871.00
2023-04-11T18:11:03.432Z,99876.69
2023-04-11T18:16:05.778Z,99881.03
2023-04-11T18:21:08.232Z,99891.91
2023-04-11T18:26:10.467Z,99882.34
2023-04-11T18:31:12.731Z,99880.94
2023-04-11T18:36:14.972Z,99895.56
2023-04-11T18:41:18.139Z,99905.00
2023-04-11T18:46:20.824Z,99907.38
2023-04-11T18:51:23.212Z,99907.13
2023-04-11T18:56:26.699Z,99896.22
2023-04-11T19:01:29.346Z,99895.13
2023-04-11T19:06:31.505Z,99885.81
2023-04-11T19:11:36.089Z,99891.16
2023-04-11T19:16:38.336Z,99896.31
2023-04-11T19:21:41.916Z,99909.22
2023-04-11T19:26:44.133Z,99896.41
2023-04-11T19:31:46.293Z,99909.44
2023-04-11T19:36:48.425Z,99895.56
2023-04-11T19:41:51.278Z,99904.00
2023-04-11T19:46:53.372Z,99894.16
2023-04-11T19:51:55.737Z,99910.37
2023-04-11T19:56:57.877Z,99905.66
2023-04-11T20:02:01.696Z,99889.31
2023-04-11T20:07:04.303Z,99900.66
2023-04-11T20:12:06.718Z,99897.84
2023-04-11T20:17:09.100Z,99879.41
2023-04-11T20:22:13.756Z,99884.03
2023-04-11T20:27:16.394Z,99882.13
2023-04-11T20:32:19.144Z,99894.03
2023-04-11T20:37:22.582Z,99902.50
2023-04-11T20:42:25.856Z,99897.00
2023-04-11T20:47:27.949Z,99875.34
2023-04-11T20:52:31.177Z,99853.78
2023-04-11T20:57:36.282Z,99855.97
2023-04-11T21:02:38.817Z,99836.56
2023-04-11T21:07:42.237Z,99808.63
2023-04-11T21:12:51.097Z,99819.34
2023-04-11T21:17:53.610Z,99845.59
2023-04-11T21:22:55.933Z,99836.19
2023-04-11T21:27:58.070Z,99826.19
2023-04-11T21:33:00.363Z,99840.09
2023-04-11T21:38:02.458Z,99845.97
2023-04-11T21:43:05.643Z,99829.72
2023-04-11T21:48:07.766Z,99837.47
2023-04-11T21:53:09.913Z,99848.81
2023-04-11T21:58:22.285Z,99851.94
2023-04-11T22:03:30.782Z,99859.97
2023-04-11T22:08:33.156Z,99857.19
2023-04-11T22:13:39.758Z,99847.44
2023-04-11T22:18:47.484Z,99850.22
2023-04-11T22:23:57.286Z,99845.81
2023-04-11T22:29:03.247Z,99847.59
2023-04-11T22:34:08.128Z,99843.69
2023-04-11T22:39:10.361Z,99823.47
2023-04-11T22:44:12.395Z,99805.63
2023-04-11T22:49:14.716Z,99788.97
2023-04-11T22:54:16.779Z,99790.72
2023-04-11T22:59:18.843Z,99785.34
2023-04-11T23:04:21.502Z,99783.03
2023-04-11T23:09:23.829Z,99768.72
2023-04-11T23:14:31.132Z,99751.88
2023-04-11T23:19:34.138Z,99749.00
2023-04-11T23:24:36.290Z,99756.41
2023-04-11T23:29:39.149Z,99760.97
2023-04-11T23:34:41.576Z,99764.34
2023-04-11T23:39:43.719Z,99766.22
2023-04-11T23:44:46.505Z,99756.78
2023-04-11T23:49:48.553Z,99758.75
2023-04-11T23:54:50.844Z,99776.97
2023-04-11T23:59:52.944Z,99751.44
